Time;durP1;ratioP1;P1;durP2;ratioP2;P2;SDS_P1;SDS_P2;PMS_P1;PMS_P2;Temp;Humidity;BMP_temperature;BMP_pressure;BME280_temperature;BME280_humidity;BME280_pressure;Samples;Min_cycle;Max_cycle;Signal;HPM_P1;HPM_P2
2022/09/18 00:01:13;;;;;;;3.42;1.38;;;11.00;99.90;;;;;;5052132;28;20563;-82
2022/09/18 00:03:40;;;;;;;2.20;1.10;;;10.90;99.90;;;;;;5032990;28;20056;-82
2022/09/18 00:06:11;;;;;;;5.63;2.03;;;11.00;99.90;;;;;;5052235;28;20029;-82
2022/09/18 00:08:38;;;;;;;4.60;1.42;;;11.00;99.90;;;;;;5052516;28;20052;-81
2022/09/18 00:11:07;;;;;;;6.45;1.60;;;11.10;99.90;;;;;;5052316;28;20028;-83
2022/09/18 00:13:34;;;;;;;7.53;2.35;;;11.10;99.90;;;;;;5054551;28;20044;-82
2022/09/18 00:16:01;;;;;;;5.63;1.48;;;11.10;99.90;;;;;;5036173;28;20045;-82
2022/09/18 00:18:27;;;;;;;4.70;1.45;;;11.00;99.90;;;;;;5056994;28;20029;-81
2022/09/18 00:20:54;;;;;;;4.00;1.40;;;11.00;99.90;;;;;;5058031;28;20035;-82
2022/09/18 00:23:20;;;;;;;6.65;1.40;;;11.10;99.90;;;;;;5036554;28;20474;-81
2022/09/18 00:25:46;;;;;;;8.18;1.70;;;11.10;99.90;;;;;;5052522;28;20037;-82
2022/09/18 00:28:12;;;;;;;3.78;1.27;;;11.10;99.90;;;;;;5033819;28;20029;-81
2022/09/18 00:30:38;;;;;;;5.40;1.20;;;11.10;99.90;;;;;;5025583;28;20041;-82
2022/09/18 00:33:04;;;;;;;5.63;1.10;;;11.20;99.90;;;;;;5032410;28;20029;-81
2022/09/18 00:35:31;;;;;;;2.63;1.30;;;11.20;99.90;;;;;;5045618;28;20473;-80
2022/09/18 00:37:57;;;;;;;7.25;1.67;;;11.10;99.90;;;;;;5033204;28;20402;-81
2022/09/18 00:40:23;;;;;;;7.47;1.55;;;11.20;99.90;;;;;;5034165;28;20043;-80
2022/09/18 00:42:49;;;;;;;5.00;1.88;;;11.20;99.90;;;;;;5032231;28;20041;-81
2022/09/18 00:45:15;;;;;;;3.63;1.30;;;11.20;99.90;;;;;;5033850;28;20036;-81
2022/09/18 00:47:46;;;;;;;9.18;1.33;;;11.20;99.90;;;;;;5051953;28;20036;-81
2022/09/18 00:50:15;;;;;;;3.13;1.10;;;11.20;99.90;;;;;;5050432;28;20029;-81
2022/09/18 00:52:43;;;;;;;8.25;1.23;;;11.20;99.90;;;;;;5032520;28;20048;-81
2022/09/18 00:55:11;;;;;;;4.55;1.00;;;11.20;99.90;;;;;;5051356;28;20033;-80
2022/09/18 00:57:42;;;;;;;4.03;1.27;;;11.20;99.90;;;;;;5033974;28;20405;-81
2022/09/18 01:00:11;;;;;;;;;;;11.20;99.90;;;;;;5051795;28;20053;-81
2022/09/18 01:02:42;;;;;;;3.08;0.98;;;11.20;99.90;;;;;;5032264;28;19909;-82
2022/09/18 01:05:09;;;;;;;3.78;0.95;;;11.20;99.90;;;;;;5033200;28;20037;-82
2022/09/18 01:08:07;;;;;;;4.63;0.90;;;11.10;99.90;;;;;;5042444;28;20041;-81
2022/09/18 01:10:47;;;;;;;5.70;1.00;;;11.10;99.90;;;;;;5053816;28;20045;-82
2022/09/18 01:13:34;;;;;;;2.28;0.75;;;11.20;99.90;;;;;;5033764;28;20032;-78
2022/09/18 01:16:05;;;;;;;5.88;1.20;;;11.20;99.90;;;;;;5045321;28;20037;-82
2022/09/18 01:19:09;;;;;;;5.00;0.75;;;11.30;99.90;;;;;;5045977;28;20051;-82
2022/09/18 01:21:49;;;;;;;4.45;1.40;;;11.20;99.90;;;;;;5034108;28;20469;-81
2022/09/18 01:24:42;;;;;;;3.77;1.10;;;11.20;99.90;;;;;;5015349;28;20482;-80
2022/09/18 01:27:14;;;;;;;3.25;1.27;;;11.20;99.90;;;;;;5033701;28;20371;-81
2022/09/18 01:30:05;;;;;;;4.20;0.95;;;11.20;99.90;;;;;;5033469;28;20041;-81
2022/09/18 01:32:44;;;;;;;1.20;0.75;;;11.20;99.90;;;;;;5032638;28;20045;-82
2022/09/18 01:35:26;;;;;;;3.35;1.13;;;11.20;99.90;;;;;;5027806;28;20040;-79
2022/09/18 01:38:23;;;;;;;4.15;0.95;;;11.20;99.90;;;;;;5033827;28;20394;-79
2022/09/18 01:40:54;;;;;;;3.25;1.42;;;11.20;99.90;;;;;;5016768;28;20045;-83
2022/09/18 01:43:22;;;;;;;5.28;1.52;;;11.30;99.90;;;;;;5025367;28;20068;-82
2022/09/18 01:45:53;;;;;;;3.72;0.90;;;11.30;99.90;;;;;;5043813;28;20033;-82
2022/09/18 01:48:29;;;;;;;5.70;1.20;;;11.30;99.90;;;;;;5028370;28;20037;-83
2022/09/18 01:51:22;;;;;;;5.18;0.88;;;11.20;99.90;;;;;;5033270;28;20040;-83
2022/09/18 01:53:58;;;;;;;3.00;1.00;;;11.30;99.90;;;;;;5031630;28;20037;-83
2022/09/18 01:56:43;;;;;;;6.43;1.05;;;11.30;99.90;;;;;;5033057;28;20506;-81
2022/09/18 01:59:21;;;;;;;3.85;1.00;;;11.20;99.90;;;;;;5011321;28;20045;-80
2022/09/18 02:01:59;;;;;;;2.88;1.13;;;11.30;99.90;;;;;;5035235;28;20478;-81
2022/09/18 02:04:30;;;;;;;2.92;1.30;;;11.30;99.90;;;;;;5054057;28;20033;-78
2022/09/18 02:07:03;;;;;;;3.72;1.67;;;11.30;99.90;;;;;;5036629;28;20402;-83
2022/09/18 02:09:30;;;;;;;3.20;1.17;;;11.30;99.90;;;;;;5019989;28;20033;-83
2022/09/18 02:12:02;;;;;;;3.20;1.17;;;11.30;99.90;;;;;;5020745;28;20374;-83
2022/09/18 02:14:37;;;;;;;5.93;1.23;;;11.20;99.90;;;;;;5019861;28;20065;-81
2022/09/18 02:17:23;;;;;;;2.95;1.13;;;11.20;99.90;;;;;;5021399;28;20056;-85
2022/09/18 02:19:55;;;;;;;1.95;0.93;;;11.20;99.90;;;;;;5020421;28;20045;-85
2022/09/18 02:22:26;;;;;;;2.15;0.88;;;11.20;99.90;;;;;;5034885;28;20044;-85
2022/09/18 02:24:58;;;;;;;4.10;1.15;;;11.10;99.90;;;;;;5020173;28;20037;-84
2022/09/18 02:27:26;;;;;;;4.20;1.05;;;11.10;99.90;;;;;;5036588;28;20045;-84
2022/09/18 02:29:54;;;;;;;1.77;0.75;;;11.10;99.90;;;;;;5036929;28;20033;-83
2022/09/18 02:32:20;;;;;;;1.50;0.60;;;11.10;99.90;;;;;;5018003;28;20052;-84
2022/09/18 02:34:46;;;;;;;1.85;0.60;;;11.10;99.90;;;;;;5054536;28;20063;-83
2022/09/18 02:37:31;;;;;;;2.05;0.88;;;11.10;99.90;;;;;;5053527;28;20044;-84
2022/09/18 02:40:08;;;;;;;3.03;0.98;;;11.20;99.90;;;;;;5054279;28;20029;-82
2022/09/18 02:43:09;;;;;;;2.80;1.13;;;11.10;99.90;;;;;;5018061;28;20045;-85
2022/09/18 02:45:52;;;;;;;2.60;1.17;;;11.10;99.90;;;;;;5036140;28;20041;-83
2022/09/18 02:48:46;;;;;;;2.70;0.70;;;11.10;99.90;;;;;;5036021;28;20029;-84
2022/09/18 02:51:33;;;;;;;3.33;0.70;;;11.10;99.90;;;;;;5035166;28;20056;-83
2022/09/18 02:54:10;;;;;;;2.85;0.88;;;11.10;99.90;;;;;;5017495;28;20041;-84
2022/09/18 02:56:39;;;;;;;1.33;0.70;;;11.00;99.90;;;;;;5053985;28;20049;-84
2022/09/18 02:59:08;;;;;;;3.80;1.30;;;11.00;99.90;;;;;;5034617;28;20045;-84
2022/09/18 03:01:40;;;;;;;2.10;0.57;;;11.00;99.90;;;;;;5035796;28;20045;-84
2022/09/18 03:04:12;;;;;;;2.67;0.60;;;11.00;99.90;;;;;;5016963;28;20292;-86
2022/09/18 03:06:57;;;;;;;1.90;0.75;;;11.00;99.90;;;;;;5030545;28;20389;-83
2022/09/18 03:09:24;;;;;;;5.43;1.75;;;11.00;99.90;;;;;;5034884;28;20049;-85
2022/09/18 03:11:52;;;;;;;2.15;0.75;;;11.00;99.90;;;;;;5019086;28;20044;-84
2022/09/18 03:14:19;;;;;;;4.07;0.60;;;11.00;99.90;;;;;;5033135;28;20044;-86
2022/09/18 03:16:45;;;;;;;0.80;0.50;;;11.00;99.90;;;;;;5019088;28;20053;-84
2022/09/18 03:19:13;;;;;;;2.25;0.40;;;11.00;99.90;;;;;;5053193;28;20454;-85
2022/09/18 03:21:40;;;;;;;1.65;0.63;;;11.00;99.90;;;;;;5035419;28;20044;-85
2022/09/18 03:24:08;;;;;;;2.40;0.70;;;11.00;99.90;;;;;;5032673;28;20044;-85
2022/09/18 03:26:37;;;;;;;1.20;0.60;;;11.00;99.90;;;;;;5035432;28;20045;-85
2022/09/18 03:29:08;;;;;;;1.65;0.73;;;11.00;99.90;;;;;;5033921;28;20045;-86
2022/09/18 03:31:34;;;;;;;2.53;0.80;;;11.00;99.90;;;;;;5034619;28;20044;-85
2022/09/18 03:34:02;;;;;;;1.92;0.50;;;11.00;99.90;;;;;;5033156;28;20041;-84
2022/09/18 03:36:29;;;;;;;2.00;0.60;;;11.00;99.90;;;;;;5018486;28;20053;-86
2022/09/18 03:38:56;;;;;;;4.95;0.60;;;11.00;99.90;;;;;;5034862;28;20047;-84
2022/09/18 03:41:23;;;;;;;4.57;0.77;;;11.00;99.90;;;;;;5018647;28;20056;-85
2022/09/18 03:43:50;;;;;;;3.63;1.00;;;11.00;99.90;;;;;;5033229;28;20051;-84
2022/09/18 03:46:23;;;;;;;4.43;1.50;;;11.00;99.90;;;;;;5033950;28;20049;-85
2022/09/18 03:48:53;;;;;;;2.33;0.68;;;10.90;99.90;;;;;;5034322;28;20389;-85
2022/09/18 03:51:21;;;;;;;1.10;0.60;;;11.00;99.90;;;;;;5034045;28;20049;-85
2022/09/18 03:53:49;;;;;;;4.43;1.15;;;11.00;99.90;;;;;;5033544;28;20033;-85
2022/09/18 03:56:37;;;;;;;2.47;0.68;;;10.90;99.90;;;;;;5052859;28;20052;-85
2022/09/18 03:59:28;;;;;;;3.88;0.90;;;11.00;99.90;;;;;;5034509;28;20048;-85
2022/09/18 04:02:20;;;;;;;3.55;0.60;;;11.00;99.90;;;;;;5017930;28;20391;-85
2022/09/18 04:05:07;;;;;;;9.93;1.15;;;11.00;99.90;;;;;;5021036;28;20037;-86
2022/09/18 04:07:52;;;;;;;6.90;1.45;;;11.00;99.90;;;;;;5044207;28;20055;-85
2022/09/18 04:10:36;;;;;;;3.47;0.93;;;10.90;99.90;;;;;;5052268;28;20044;-84
2022/09/18 04:13:04;;;;;;;1.90;0.70;;;10.90;99.90;;;;;;5016651;28;20056;-85
2022/09/18 04:15:33;;;;;;;2.20;0.70;;;10.90;99.90;;;;;;5033782;28;20041;-84
2022/09/18 04:18:00;;;;;;;2.72;0.57;;;10.90;99.90;;;;;;5033720;28;20136;-85
2022/09/18 04:20:26;;;;;;;5.13;1.00;;;10.90;99.90;;;;;;5051879;28;20466;-84
2022/09/18 04:22:53;;;;;;;1.85;0.90;;;10.90;99.90;;;;;;5033309;28;20048;-85
2022/09/18 04:25:19;;;;;;;4.18;0.80;;;10.90;99.90;;;;;;5032769;28;20037;-85
2022/09/18 04:27:47;;;;;;;1.42;0.88;;;10.90;99.90;;;;;;5027898;28;20394;-84
2022/09/18 04:30:14;;;;;;;2.78;0.80;;;11.00;99.90;;;;;;5032589;28;20044;-84
2022/09/18 04:32:43;;;;;;;1.48;0.70;;;11.00;99.90;;;;;;5032101;28;20036;-84
2022/09/18 04:35:09;;;;;;;3.30;1.08;;;10.90;99.90;;;;;;5033363;28;20037;-85
2022/09/18 04:37:36;;;;;;;2.97;1.30;;;10.90;99.90;;;;;;5021520;28;20049;-85
2022/09/18 04:40:04;;;;;;;2.22;0.70;;;10.90;99.90;;;;;;5038336;28;20048;-85
2022/09/18 04:42:31;;;;;;;1.88;0.70;;;11.00;99.90;;;;;;5036008;28;20044;-85
2022/09/18 04:44:57;;;;;;;2.20;0.80;;;11.00;99.90;;;;;;5041268;28;20045;-86
2022/09/18 04:47:23;;;;;;;1.92;0.50;;;11.00;99.90;;;;;;5039583;28;20044;-83
2022/09/18 04:49:49;;;;;;;3.53;1.20;;;11.00;99.90;;;;;;5018362;28;20041;-84
2022/09/18 04:52:18;;;;;;;2.47;0.73;;;11.00;99.90;;;;;;5031620;28;20048;-84
2022/09/18 04:54:44;;;;;;;1.75;0.60;;;11.00;99.90;;;;;;5017819;28;20049;-84
2022/09/18 04:57:12;;;;;;;5.68;0.57;;;11.10;99.90;;;;;;5032988;28;20048;-85
2022/09/18 04:59:42;;;;;;;2.00;0.65;;;11.10;99.90;;;;;;5014904;28;20045;-83
2022/09/18 05:02:09;;;;;;;5.05;0.80;;;11.00;99.90;;;;;;5015603;28;20052;-85
2022/09/18 05:04:35;;;;;;;1.42;0.57;;;11.10;99.90;;;;;;5021143;28;20030;-85
2022/09/18 05:07:18;;;;;;;1.35;0.68;;;11.10;99.90;;;;;;5019634;28;20394;-86
2022/09/18 05:09:45;;;;;;;0.90;0.40;;;11.10;99.90;;;;;;5015203;28;20045;-87
2022/09/18 05:12:11;;;;;;;1.40;0.50;;;11.10;99.90;;;;;;5029332;28;20046;-86
2022/09/18 05:14:39;;;;;;;4.40;0.90;;;11.20;99.90;;;;;;5031769;28;20042;-86
2022/09/18 05:17:08;;;;;;;2.63;0.73;;;11.20;99.90;;;;;;5010290;28;20053;-85
2022/09/18 05:19:37;;;;;;;2.40;0.98;;;11.10;99.90;;;;;;5009354;28;20045;-85
2022/09/18 05:22:13;;;;;;;4.55;1.17;;;11.20;99.90;;;;;;5027390;28;20045;-84
2022/09/18 05:24:44;;;;;;;2.55;0.68;;;11.20;99.90;;;;;;5029986;28;20046;-83
2022/09/18 05:27:12;;;;;;;2.85;0.85;;;11.30;99.90;;;;;;5029750;28;20053;-85
2022/09/18 05:29:38;;;;;;;4.85;1.00;;;11.30;99.90;;;;;;5013832;28;20042;-84
2022/09/18 05:32:11;;;;;;;5.03;1.40;;;11.30;99.90;;;;;;5028308;28;20049;-84
2022/09/18 05:34:37;;;;;;;3.47;1.08;;;11.30;99.90;;;;;;5030023;28;20046;-86
2022/09/18 05:37:06;;;;;;;4.65;1.02;;;11.30;99.90;;;;;;5032375;28;20049;-86
2022/09/18 05:39:32;;;;;;;3.50;0.90;;;11.30;99.90;;;;;;5033503;28;20041;-84
2022/09/18 05:42:01;;;;;;;5.63;1.58;;;11.30;99.90;;;;;;5032941;28;20459;-85
2022/09/18 05:44:28;;;;;;;3.70;0.95;;;11.40;99.90;;;;;;5017311;28;20257;-86
2022/09/18 05:46:54;;;;;;;3.80;0.85;;;11.40;99.90;;;;;;5017684;28;20513;-84
2022/09/18 05:49:21;;;;;;;3.03;0.85;;;11.40;99.90;;;;;;5016663;28;20046;-85
2022/09/18 05:51:47;;;;;;;3.63;0.70;;;11.40;99.90;;;;;;5032968;28;20033;-85
2022/09/18 05:54:15;;;;;;;2.00;1.10;;;11.40;99.90;;;;;;5016466;28;20041;-85
2022/09/18 05:56:46;;;;;;;;;;;11.40;99.90;;;;;;5034082;28;20050;-84
2022/09/18 05:59:12;;;;;;;4.72;0.90;;;11.40;99.90;;;;;;5032784;28;19963;-85
2022/09/18 06:01:41;;;;;;;2.50;0.82;;;11.40;99.90;;;;;;5033240;28;20044;-84
2022/09/18 06:04:29;;;;;;;9.65;1.73;;;11.40;99.90;;;;;;5034090;28;20056;-85
2022/09/18 06:07:03;;;;;;;1.75;0.80;;;11.40;99.90;;;;;;5018114;28;20053;-84
2022/09/18 06:09:29;;;;;;;2.90;1.02;;;11.50;99.90;;;;;;5039777;28;20496;-82
2022/09/18 06:11:56;;;;;;;5.45;0.77;;;11.50;99.90;;;;;;5028818;28;20045;-85
2022/09/18 06:14:22;;;;;;;2.45;0.60;;;11.50;99.90;;;;;;5019936;28;20048;-86
2022/09/18 06:16:49;;;;;;;3.05;0.82;;;11.50;99.90;;;;;;5033126;28;20120;-86
2022/09/18 06:19:16;;;;;;;3.80;0.70;;;11.60;99.90;;;;;;5033000;28;20060;-85
2022/09/18 06:21:44;;;;;;;1.85;0.70;;;11.60;99.90;;;;;;5031898;28;20380;-82
2022/09/18 06:24:14;;;;;;;2.78;0.63;;;11.50;99.90;;;;;;5032350;28;20045;-82
2022/09/18 06:27:06;;;;;;;4.05;0.80;;;11.60;99.90;;;;;;5031868;28;20067;-84
2022/09/18 06:29:33;;;;;;;3.63;0.90;;;11.60;99.90;;;;;;5032351;28;20041;-84
2022/09/18 06:32:10;;;;;;;3.05;0.85;;;11.70;99.90;;;;;;5031645;28;20058;-84
2022/09/18 06:34:38;;;;;;;2.13;0.82;;;11.80;99.90;;;;;;5017004;28;20572;-85
2022/09/18 06:37:08;;;;;;;3.28;0.90;;;11.80;99.90;;;;;;5033123;28;20106;-81
2022/09/18 06:39:44;;;;;;;1.98;0.60;;;11.90;99.90;;;;;;5034601;28;20052;-83
2022/09/18 06:42:30;;;;;;;4.68;1.30;;;11.90;99.90;;;;;;5030332;28;20042;-85
2022/09/18 06:45:07;;;;;;;5.18;0.75;;;11.90;99.90;;;;;;5027241;28;20386;-84
2022/09/18 06:47:34;;;;;;;4.45;1.17;;;12.00;99.90;;;;;;5031006;28;20050;-85
2022/09/18 06:50:00;;;;;;;4.85;1.55;;;12.20;99.90;;;;;;5032960;28;20037;-85
2022/09/18 06:52:28;;;;;;;2.33;0.95;;;12.30;99.90;;;;;;5014517;28;20041;-85
2022/09/18 06:54:56;;;;;;;3.88;1.48;;;12.20;99.90;;;;;;5016196;28;20049;-85
2022/09/18 06:57:32;;;;;;;2.13;1.23;;;12.10;99.90;;;;;;5012952;28;20649;-84
2022/09/18 06:59:58;;;;;;;3.65;0.70;;;12.10;99.90;;;;;;5033991;28;20045;-79
2022/09/18 07:02:26;;;;;;;2.15;0.80;;;12.20;99.90;;;;;;5030246;28;20050;-83
2022/09/18 07:05:15;;;;;;;4.38;1.10;;;12.10;99.90;;;;;;5031870;28;20398;-84
2022/09/18 07:07:44;;;;;;;1.58;0.80;;;12.10;99.90;;;;;;5015456;28;20049;-79
2022/09/18 07:10:10;;;;;;;2.33;0.70;;;12.10;99.90;;;;;;5032508;28;20052;-83
2022/09/18 07:12:41;;;;;;;2.10;0.88;;;12.10;99.90;;;;;;5028436;28;20042;-83
2022/09/18 07:15:08;;;;;;;3.17;0.82;;;12.20;99.90;;;;;;5031109;28;20052;-84
2022/09/18 07:17:35;;;;;;;3.97;0.77;;;12.20;99.90;;;;;;5031205;28;20056;-79
2022/09/18 07:20:03;;;;;;;8.10;0.82;;;12.20;99.90;;;;;;5032174;28;20037;-80
2022/09/18 07:22:37;;;;;;;2.70;1.33;;;12.30;99.90;;;;;;5029829;28;20462;-82
2022/09/18 07:25:05;;;;;;;5.10;1.08;;;12.30;99.90;;;;;;5033628;28;20034;-82
2022/09/18 07:27:32;;;;;;;1.45;0.77;;;12.40;99.90;;;;;;5031212;28;20060;-82
2022/09/18 07:29:59;;;;;;;2.88;0.70;;;12.40;99.90;;;;;;5031888;28;20041;-82
2022/09/18 07:32:26;;;;;;;4.43;1.70;;;12.30;99.90;;;;;;5029069;28;20041;-83
2022/09/18 07:34:53;;;;;;;1.55;0.50;;;12.30;99.90;;;;;;5015778;28;20037;-83
2022/09/18 07:37:32;;;;;;;2.13;0.77;;;12.40;99.90;;;;;;5031276;28;20049;-83
2022/09/18 07:40:20;;;;;;;7.13;1.20;;;12.40;99.90;;;;;;5031215;28;20068;-83
2022/09/18 07:42:57;;;;;;;3.22;1.08;;;12.50;99.90;;;;;;5031752;28;20479;-82
2022/09/18 07:45:23;;;;;;;3.78;0.98;;;12.50;99.90;;;;;;5025494;28;20030;-83
2022/09/18 07:47:49;;;;;;;3.28;0.52;;;12.50;99.90;;;;;;5031530;28;20049;-83
2022/09/18 07:50:16;;;;;;;1.90;0.77;;;12.60;99.90;;;;;;5021541;28;20463;-81
2022/09/18 07:52:51;;;;;;;3.03;0.50;;;12.80;99.90;;;;;;5029768;28;20041;-84
2022/09/18 07:55:21;;;;;;;1.92;0.60;;;12.70;99.90;;;;;;5030787;28;20475;-83
2022/09/18 07:57:59;;;;;;;3.28;0.70;;;12.80;99.90;;;;;;5030934;28;20053;-83
2022/09/18 08:00:51;;;;;;;2.03;0.50;;;12.90;99.90;;;;;;5004233;28;20049;-84
2022/09/18 08:03:19;;;;;;;3.55;0.60;;;12.90;99.90;;;;;;4993517;28;20042;-84
2022/09/18 08:06:05;;;;;;;1.17;0.43;;;13.00;99.90;;;;;;5012909;28;20056;-79
2022/09/18 08:08:35;;;;;;;1.23;0.45;;;13.10;99.90;;;;;;5010730;28;20050;-80
2022/09/18 08:11:33;;;;;;;2.45;0.68;;;13.10;99.90;;;;;;5003301;28;20030;-82
2022/09/18 08:14:34;;;;;;;3.85;0.93;;;13.30;99.90;;;;;;4947266;29;20050;-80
2022/09/18 08:17:19;;;;;;;1.92;0.90;;;13.10;99.90;;;;;;5007350;28;20065;-81
2022/09/18 08:20:08;;;;;;;3.70;0.70;;;13.10;99.90;;;;;;5010684;28;20383;-82
2022/09/18 08:22:42;;;;;;;2.08;0.80;;;13.10;99.90;;;;;;5010868;28;20038;-80
2022/09/18 08:25:10;;;;;;;1.85;0.70;;;13.20;99.90;;;;;;5006414;28;20065;-82
2022/09/18 08:27:37;;;;;;;2.10;1.35;;;13.20;99.90;;;;;;5010219;28;20390;-82
2022/09/18 08:30:06;;;;;;;1.02;0.50;;;13.40;99.90;;;;;;5011011;28;20046;-81
2022/09/18 08:32:33;;;;;;;3.97;0.70;;;13.60;99.90;;;;;;5008819;28;20042;-79
2022/09/18 08:35:00;;;;;;;3.90;0.50;;;13.70;99.90;;;;;;5012536;28;20037;-81
2022/09/18 08:37:28;;;;;;;2.35;0.85;;;13.60;99.90;;;;;;5010424;28;20046;-83
2022/09/18 08:40:15;;;;;;;2.30;0.50;;;13.80;99.90;;;;;;5020899;28;20053;-86
2022/09/18 08:43:12;;;;;;;3.83;1.42;;;13.70;99.90;;;;;;4991779;28;20034;-83
2022/09/18 08:45:50;;;;;;;3.33;0.90;;;13.70;99.90;;;;;;4987836;28;20038;-85
2022/09/18 08:48:24;;;;;;;3.05;0.75;;;13.60;99.90;;;;;;5005897;28;20052;-84
2022/09/18 08:51:00;;;;;;;2.28;0.70;;;13.60;99.90;;;;;;5010475;28;20046;-81
2022/09/18 08:53:41;;;;;;;1.65;0.88;;;13.60;99.90;;;;;;5008323;28;20501;-82
2022/09/18 08:56:27;;;;;;;2.88;1.27;;;13.60;99.90;;;;;;5011830;28;20038;-82
2022/09/18 08:59:20;;;;;;;3.00;0.90;;;13.70;99.90;;;;;;5019138;28;20055;-83
2022/09/18 09:02:02;;;;;;;3.33;0.80;;;13.60;99.90;;;;;;5032709;28;20064;-81
2022/09/18 09:04:29;;;;;;;2.47;0.80;;;13.70;99.90;;;;;;5051510;28;20045;-82
2022/09/18 09:07:17;;;;;;;3.58;1.05;;;13.60;99.90;;;;;;5035569;28;20045;-83
2022/09/18 09:10:24;;;;;;;3.13;0.88;;;13.80;99.90;;;;;;5037747;28;20044;-85
2022/09/18 09:13:14;;;;;;;3.15;0.70;;;14.00;99.90;;;;;;5042660;28;20041;-81
2022/09/18 09:16:28;;;;;;;3.45;0.60;;;13.90;99.90;;;;;;5040178;28;20041;-82
2022/09/18 09:19:06;;;;;;;2.63;0.60;;;13.90;99.90;;;;;;4958404;28;20507;-83
2022/09/18 09:22:14;;;;;;;1.67;0.70;;;14.10;99.90;;;;;;5028589;28;20052;-82
2022/09/18 09:25:06;;;;;;;2.60;0.65;;;14.20;99.90;;;;;;4958146;28;20039;-81
2022/09/18 09:28:08;;;;;;;6.18;1.00;;;14.40;99.90;;;;;;4958097;28;20090;-83
2022/09/18 09:30:57;;;;;;;2.47;0.52;;;14.30;99.90;;;;;;5060799;28;20394;-83
2022/09/18 09:34:10;;;;;;;4.95;1.10;;;14.30;99.90;;;;;;5054848;28;20033;-81
2022/09/18 09:36:56;;;;;;;1.58;0.70;;;14.30;99.90;;;;;;5038421;28;20470;-76
2022/09/18 09:39:36;;;;;;;4.15;0.88;;;14.30;99.90;;;;;;5029604;28;20045;-79
2022/09/18 09:42:22;;;;;;;0.98;0.50;;;14.40;99.90;;;;;;5035349;28;20048;-78
2022/09/18 09:45:02;;;;;;;3.97;0.80;;;14.60;99.90;;;;;;5038208;28;20045;-85
2022/09/18 09:47:52;;;;;;;5.65;0.60;;;15.10;99.90;;;;;;5035757;28;20049;-82
2022/09/18 09:50:45;;;;;;;3.33;0.70;;;14.90;99.30;;;;;;5036859;28;20034;-80
2022/09/18 09:53:12;;;;;;;2.70;0.70;;;15.10;98.90;;;;;;4990360;28;20490;-80
2022/09/18 09:56:00;;;;;;;15.48;1.95;;;15.20;97.60;;;;;;5035949;28;20048;-81
2022/09/18 09:58:29;;;;;;;1.75;0.50;;;15.10;98.30;;;;;;5030224;28;20064;-81
2022/09/18 10:01:00;;;;;;;4.95;1.10;;;15.10;97.70;;;;;;5032637;28;20054;-80
2022/09/18 10:03:50;;;;;;;6.35;0.98;;;14.90;97.80;;;;;;5030521;28;20044;-81
2022/09/18 10:06:44;;;;;;;5.72;0.88;;;14.90;98.40;;;;;;5035484;28;20042;-81
2022/09/18 10:09:45;;;;;;;2.45;0.73;;;15.10;97.50;;;;;;5034004;28;20050;-80
2022/09/18 10:12:20;;;;;;;1.73;0.70;;;15.10;98.00;;;;;;4991509;28;20387;-78
2022/09/18 10:14:53;;;;;;;3.85;1.10;;;15.40;96.90;;;;;;5033643;28;20048;-80
2022/09/18 10:17:21;;;;;;;3.53;0.80;;;15.60;96.80;;;;;;5034901;28;20569;-79
2022/09/18 10:19:49;;;;;;;7.55;0.85;;;15.70;95.20;;;;;;5033150;28;20038;-77
2022/09/18 10:22:21;;;;;;;5.95;0.90;;;15.60;94.30;;;;;;5033175;28;20040;-81
2022/09/18 10:24:56;;;;;;;5.80;1.33;;;15.60;96.10;;;;;;5016452;28;20048;-80
2022/09/18 10:27:24;;;;;;;2.60;0.50;;;15.70;95.10;;;;;;5032506;28;20045;-82
2022/09/18 10:29:53;;;;;;;2.53;0.70;;;15.70;94.20;;;;;;5032898;28;20037;-82
2022/09/18 10:32:36;;;;;;;3.17;0.60;;;15.40;94.80;;;;;;5030357;28;20045;-81
2022/09/18 10:35:27;;;;;;;2.33;0.90;;;15.40;94.60;;;;;;5032448;28;20052;-82
2022/09/18 10:37:54;;;;;;;2.95;0.65;;;15.30;94.70;;;;;;5051657;28;20052;-80
2022/09/18 10:40:46;;;;;;;2.40;0.50;;;15.20;95.60;;;;;;5030096;28;20647;-81
2022/09/18 10:43:17;;;;;;;2.80;0.90;;;15.20;94.60;;;;;;5029213;28;20387;-80
2022/09/18 10:45:51;;;;;;;3.08;0.95;;;15.10;95.20;;;;;;5031358;28;20041;-81
2022/09/18 10:48:29;;;;;;;2.47;0.52;;;15.00;95.10;;;;;;5033823;28;20037;-79
2022/09/18 10:51:01;;;;;;;2.70;0.60;;;14.90;95.10;;;;;;5032599;28;20049;-79
2022/09/18 10:53:41;;;;;;;5.57;0.70;;;14.70;94.20;;;;;;5031390;28;20052;-76
2022/09/18 10:56:19;;;;;;;2.67;1.08;;;14.70;94.70;;;;;;5032809;28;20050;-79
2022/09/18 10:58:46;;;;;;;2.13;1.00;;;14.80;94.90;;;;;;5028436;28;20057;-78
2022/09/18 11:01:13;;;;;;;2.25;1.05;;;14.90;94.40;;;;;;5034658;28;20048;-78
2022/09/18 11:04:05;;;;;;;3.13;0.98;;;15.00;95.30;;;;;;5028733;28;20402;-76
2022/09/18 11:06:44;;;;;;;1.67;0.57;;;15.30;94.00;;;;;;5034967;28;20371;-75
2022/09/18 11:09:35;;;;;;;2.35;0.70;;;15.30;94.70;;;;;;5037720;28;20040;-76
2022/09/18 11:12:01;;;;;;;2.70;0.70;;;15.30;93.40;;;;;;5028230;28;20048;-76
2022/09/18 11:14:39;;;;;;;4.53;0.98;;;15.10;93.60;;;;;;5034969;28;20045;-78
2022/09/18 11:17:33;;;;;;;1.85;0.80;;;14.90;93.10;;;;;;5034957;28;20386;-79
2022/09/18 11:20:05;;;;;;;1.98;0.88;;;14.80;93.40;;;;;;5019161;28;20075;-76
2022/09/18 11:23:21;;;;;;;2.20;0.68;;;14.70;93.60;;;;;;5034482;28;20037;-79
2022/09/18 11:26:18;;;;;;;2.83;0.80;;;14.70;93.50;;;;;;5019322;28;20482;-82
2022/09/18 11:29:05;;;;;;;4.25;0.93;;;14.70;93.50;;;;;;5030460;28;20037;-78
2022/09/18 11:31:40;;;;;;;3.78;0.70;;;14.70;93.40;;;;;;5064242;28;20044;-76
2022/09/18 11:34:34;;;;;;;2.65;0.88;;;14.70;92.40;;;;;;5066515;28;20048;-75
2022/09/18 11:37:06;;;;;;;4.72;1.40;;;14.70;93.10;;;;;;5065241;28;20041;-75
2022/09/18 11:39:57;;;;;;;5.70;1.27;;;14.70;93.00;;;;;;5034614;28;20045;-75
2022/09/18 11:42:24;;;;;;;2.95;1.10;;;14.70;92.80;;;;;;5033155;28;20041;-75
2022/09/18 11:44:51;;;;;;;2.17;0.50;;;14.60;92.20;;;;;;5053152;28;20029;-75
2022/09/18 11:47:33;;;;;;;1.42;0.63;;;14.60;93.20;;;;;;5036786;28;20041;-75
2022/09/18 11:50:16;;;;;;;5.55;0.65;;;14.60;93.20;;;;;;5034653;28;20052;-77
2022/09/18 11:52:46;;;;;;;4.63;0.70;;;14.80;93.40;;;;;;5032462;28;20040;-76
2022/09/18 11:55:28;;;;;;;2.33;0.98;;;14.70;93.60;;;;;;5028916;28;20059;-75
2022/09/18 11:58:09;;;;;;;1.90;0.95;;;14.70;93.70;;;;;;5035041;28;20049;-75
2022/09/18 12:01:25;;;;;;;1.30;0.50;;;14.60;93.20;;;;;;5033761;28;20060;-76
2022/09/18 12:04:39;;;;;;;5.57;0.88;;;14.50;93.10;;;;;;5034432;28;20390;-76
2022/09/18 12:07:34;;;;;;;3.67;0.88;;;14.50;93.70;;;;;;5011167;28;20390;-76
2022/09/18 12:10:13;;;;;;;4.25;1.10;;;14.60;92.90;;;;;;5034520;28;20478;-76
2022/09/18 12:12:43;;;;;;;1.80;0.57;;;14.70;93.60;;;;;;5050676;28;20044;-76
2022/09/18 12:15:19;;;;;;;3.00;0.73;;;14.80;93.20;;;;;;5034390;28;20045;-76
2022/09/18 12:17:58;;;;;;;2.75;0.80;;;14.90;93.60;;;;;;5034018;28;20052;-76
2022/09/18 12:20:36;;;;;;;4.28;1.00;;;14.90;92.20;;;;;;5034107;28;20048;-78
2022/09/18 12:23:08;;;;;;;1.83;0.88;;;15.10;92.50;;;;;;5051642;28;20029;-76
2022/09/18 12:25:42;;;;;;;2.20;0.50;;;15.30;91.70;;;;;;5052791;28;20045;-76
2022/09/18 12:28:31;;;;;;;1.67;0.60;;;15.40;91.70;;;;;;5035763;28;20077;-77
2022/09/18 12:31:13;;;;;;;1.50;0.70;;;15.20;91.10;;;;;;5035175;28;20068;-78
2022/09/18 12:33:57;;;;;;;2.35;0.90;;;15.10;91.20;;;;;;5053649;28;20029;-78
2022/09/18 12:37:05;;;;;;;4.13;1.08;;;15.10;91.60;;;;;;5035479;28;20037;-77
2022/09/18 12:39:59;;;;;;;1.50;0.90;;;15.10;91.80;;;;;;5051978;28;20029;-77
2022/09/18 12:42:47;;;;;;;2.15;1.08;;;15.20;91.50;;;;;;5050285;28;20359;-81
2022/09/18 12:45:31;;;;;;;2.65;0.90;;;15.10;90.90;;;;;;5032130;28;20024;-78
2022/09/18 12:48:17;;;;;;;2.92;1.02;;;15.00;90.90;;;;;;5051415;28;20029;-76
2022/09/18 12:50:54;;;;;;;2.10;0.60;;;14.90;90.90;;;;;;5051396;28;20029;-74
2022/09/18 12:53:27;;;;;;;2.97;0.60;;;14.80;89.60;;;;;;5051243;28;20033;-76
2022/09/18 12:56:07;;;;;;;3.25;0.40;;;14.80;90.20;;;;;;5051954;28;20041;-79
2022/09/18 12:58:48;;;;;;;6.10;0.75;;;14.80;90.00;;;;;;5051786;28;20063;-77
2022/09/18 13:01:22;;;;;;;;;;;14.80;89.00;;;;;;5050182;28;20040;-79
2022/09/18 13:03:52;;;;;;;4.45;0.85;;;14.70;89.00;;;;;;5050165;28;19919;-78
2022/09/18 13:06:34;;;;;;;6.30;0.73;;;14.70;87.50;;;;;;5051762;28;20033;-76
2022/09/18 13:09:18;;;;;;;2.25;0.85;;;14.80;88.30;;;;;;5051702;28;20056;-78
2022/09/18 13:11:59;;;;;;;2.60;0.73;;;14.80;88.60;;;;;;5049957;28;20033;-77
2022/09/18 13:14:35;;;;;;;2.95;0.82;;;14.80;88.80;;;;;;5033871;28;20037;-76
2022/09/18 13:17:17;;;;;;;5.60;0.85;;;14.90;89.00;;;;;;5045480;28;20033;-76
2022/09/18 13:20:10;;;;;;;3.10;0.93;;;14.90;87.00;;;;;;5028674;28;20045;-77
2022/09/18 13:22:37;;;;;;;2.85;1.50;;;14.80;85.80;;;;;;5050023;28;20037;-78
2022/09/18 13:25:13;;;;;;;4.70;1.00;;;14.70;85.30;;;;;;5052205;28;20041;-78
2022/09/18 13:27:40;;;;;;;3.53;1.08;;;14.80;87.40;;;;;;5051119;28;20041;-79
2022/09/18 13:30:21;;;;;;;2.08;0.82;;;14.90;86.70;;;;;;5052656;28;20454;-77
2022/09/18 13:32:47;;;;;;;2.92;0.70;;;14.80;84.30;;;;;;5049003;28;20257;-77